sensor_id;sensor_type;location;lat;lon;timestamp;pressure;altitude;pressure_sealevel;temperature;humidity
40850;BME280;26571;41.610;25.380;2023-11-19T00:00:16;97690.69;;;9.08;49.39
40850;BME280;26571;41.610;25.380;2023-11-19T00:02:41;97699.88;;;9.12;49.33
40850;BME280;26571;41.610;25.380;2023-11-19T00:05:08;97704.81;;;9.07;51.71
40850;BME280;26571;41.610;25.380;2023-11-19T00:07:37;97650.41;;;8.70;50.65
40850;BME280;26571;41.610;25.380;2023-11-19T00:10:10;97723.72;;;9.02;49.17
40850;BME280;26571;41.610;25.380;2023-11-19T00:12:37;97722.56;;;9.05;50.89
40850;BME280;26571;41.610;25.380;2023-11-19T00:15:03;97735.75;;;8.97;49.70
40850;BME280;26571;41.610;25.380;2023-11-19T00:17:28;97732.13;;;8.98;51.22
40850;BME280;26571;41.610;25.380;2023-11-19T00:19:54;97740.41;;;9.10;53.69
40850;BME280;26571;41.610;25.380;2023-11-19T00:22:19;97744.97;;;9.16;51.17
40850;BME280;26571;41.610;25.380;2023-11-19T00:24:46;97747.31;;;9.33;50.28
40850;BME280;26571;41.610;25.380;2023-11-19T00:27:12;97745.34;;;9.36;51.63
40850;BME280;26571;41.610;25.380;2023-11-19T00:29:37;97737.63;;;9.34;50.00
40850;BME280;26571;41.610;25.380;2023-11-19T00:32:03;97692.28;;;9.17;51.17
40850;BME280;26571;41.610;25.380;2023-11-19T00:34:30;97723.84;;;9.09;50.20
40850;BME280;26571;41.610;25.380;2023-11-19T00:36:56;97730.44;;;9.05;51.02
40850;BME280;26571;41.610;25.380;2023-11-19T00:39:21;97750.75;;;9.11;50.22
40850;BME280;26571;41.610;25.380;2023-11-19T00:41:47;97761.25;;;9.11;51.24
40850;BME280;26571;41.610;25.380;2023-11-19T00:44:13;97732.41;;;9.03;53.21
40850;BME280;26571;41.610;25.380;2023-11-19T00:46:39;97767.50;;;9.10;52.03
40850;BME280;26571;41.610;25.380;2023-11-19T00:49:04;97764.72;;;9.03;52.60
40850;BME280;26571;41.610;25.380;2023-11-19T00:51:30;97777.03;;;9.03;51.35
40850;BME280;26571;41.610;25.380;2023-11-19T00:53:57;97784.63;;;8.98;51.01
40850;BME280;26571;41.610;25.380;2023-11-19T00:56:22;97788.22;;;9.05;51.97
40850;BME280;26571;41.610;25.380;2023-11-19T00:58:48;97774.09;;;9.06;53.02
40850;BME280;26571;41.610;25.380;2023-11-19T01:01:13;97746.38;;;8.72;51.04
40850;BME280;26571;41.610;25.380;2023-11-19T01:03:39;97718.53;;;8.63;52.54
40850;BME280;26571;41.610;25.380;2023-11-19T01:06:04;97760.16;;;8.66;51.12
40850;BME280;26571;41.610;25.380;2023-11-19T01:08:30;97770.72;;;8.89;52.72
40850;BME280;26571;41.610;25.380;2023-11-19T01:10:56;97772.50;;;8.97;53.81
40850;BME280;26571;41.610;25.380;2023-11-19T01:13:21;97768.56;;;8.93;52.06
40850;BME280;26571;41.610;25.380;2023-11-19T01:15:46;97781.69;;;8.93;51.05
40850;BME280;26571;41.610;25.380;2023-11-19T01:18:13;97783.41;;;8.77;51.62
40850;BME280;26571;41.610;25.380;2023-11-19T01:20:38;97778.16;;;8.77;51.16
40850;BME280;26571;41.610;25.380;2023-11-19T01:23:04;97783.16;;;8.95;52.91
40850;BME280;26571;41.610;25.380;2023-11-19T01:25:29;97795.16;;;8.90;52.42
40850;BME280;26571;41.610;25.380;2023-11-19T01:27:55;97795.44;;;8.95;54.44
40850;BME280;26571;41.610;25.380;2023-11-19T01:30:24;97783.00;;;8.89;53.04
40850;BME280;26571;41.610;25.380;2023-11-19T01:32:49;97805.53;;;9.14;54.15
40850;BME280;26571;41.610;25.380;2023-11-19T01:35:15;97800.28;;;9.14;52.81
40850;BME280;26571;41.610;25.380;2023-11-19T01:37:40;97807.22;;;9.07;52.21
40850;BME280;26571;41.610;25.380;2023-11-19T01:40:06;97745.38;;;8.73;51.78
40850;BME280;26571;41.610;25.380;2023-11-19T01:42:40;97782.78;;;9.06;52.77
40850;BME280;26571;41.610;25.380;2023-11-19T01:45:06;97802.34;;;8.96;54.04
40850;BME280;26571;41.610;25.380;2023-11-19T01:47:33;97794.19;;;8.91;52.90
40850;BME280;26571;41.610;25.380;2023-11-19T01:49:59;97776.13;;;8.88;52.49
40850;BME280;26571;41.610;25.380;2023-11-19T01:52:25;97776.34;;;8.78;53.69
40850;BME280;26571;41.610;25.380;2023-11-19T01:54:53;97763.59;;;8.67;54.24
40850;BME280;26571;41.610;25.380;2023-11-19T01:57:20;97799.44;;;8.91;53.54
40850;BME280;26571;41.610;25.380;2023-11-19T01:59:46;97783.72;;;8.74;50.46
40850;BME280;26571;41.610;25.380;2023-11-19T02:02:11;97765.75;;;8.63;52.64
40850;BME280;26571;41.610;25.380;2023-11-19T02:04:38;97800.47;;;8.73;52.39
40850;BME280;26571;41.610;25.380;2023-11-19T02:07:04;97803.19;;;8.88;51.83
40850;BME280;26571;41.610;25.380;2023-11-19T02:09:29;97806.44;;;8.98;52.52
40850;BME280;26571;41.610;25.380;2023-11-19T02:11:55;97802.06;;;8.91;51.14
40850;BME280;26571;41.610;25.380;2023-11-19T02:14:25;97817.13;;;8.89;52.02
40850;BME280;26571;41.610;25.380;2023-11-19T02:16:51;97784.41;;;8.68;50.31
40850;BME280;26571;41.610;25.380;2023-11-19T02:19:19;97808.97;;;8.84;52.79
40850;BME280;26571;41.610;25.380;2023-11-19T02:21:45;97805.34;;;8.85;50.60
40850;BME280;26571;41.610;25.380;2023-11-19T02:24:12;97813.41;;;8.83;50.62
40850;BME280;26571;41.610;25.380;2023-11-19T02:26:43;97817.81;;;8.91;53.53
40850;BME280;26571;41.610;25.380;2023-11-19T02:29:11;97809.56;;;8.94;54.21
40850;BME280;26571;41.610;25.380;2023-11-19T02:31:38;97804.31;;;8.94;50.07
40850;BME280;26571;41.610;25.380;2023-11-19T02:34:03;97802.00;;;8.99;51.54
40850;BME280;26571;41.610;25.380;2023-11-19T02:36:29;97803.88;;;8.90;50.80
40850;BME280;26571;41.610;25.380;2023-11-19T02:38:54;97803.19;;;8.96;51.69
40850;BME280;26571;41.610;25.380;2023-11-19T02:41:20;97789.88;;;8.98;52.11
40850;BME280;26571;41.610;25.380;2023-11-19T02:43:45;97825.72;;;9.14;51.57
40850;BME280;26571;41.610;25.380;2023-11-19T02:46:14;97811.88;;;8.89;51.16
40850;BME280;26571;41.610;25.380;2023-11-19T02:48:39;97797.78;;;8.90;52.07
40850;BME280;26571;41.610;25.380;2023-11-19T02:51:06;97830.34;;;9.12;50.50
40850;BME280;26571;41.610;25.380;2023-11-19T02:53:35;97814.53;;;9.20;50.75
40850;BME280;26571;41.610;25.380;2023-11-19T02:56:00;97828.31;;;9.22;51.92
40850;BME280;26571;41.610;25.380;2023-11-19T02:58:43;97795.72;;;9.08;50.65
40850;BME280;26571;41.610;25.380;2023-11-19T03:01:10;97726.00;;;8.74;51.05
40850;BME280;26571;41.610;25.380;2023-11-19T03:03:44;97818.63;;;9.22;50.16
40850;BME280;26571;41.610;25.380;2023-11-19T03:06:14;97844.59;;;9.17;51.19
40850;BME280;26571;41.610;25.380;2023-11-19T03:08:40;97839.34;;;9.17;53.73
40850;BME280;26571;41.610;25.380;2023-11-19T03:11:05;97853.41;;;9.24;52.41
40850;BME280;26571;41.610;25.380;2023-11-19T03:13:30;97850.22;;;9.06;50.40
40850;BME280;26571;41.610;25.380;2023-11-19T03:15:56;97843.50;;;9.03;52.92
40850;BME280;26571;41.610;25.380;2023-11-19T03:18:21;97840.06;;;8.95;52.54
40850;BME280;26571;41.610;25.380;2023-11-19T03:20:47;97839.72;;;9.06;50.58
40850;BME280;26571;41.610;25.380;2023-11-19T03:23:12;97837.13;;;8.98;51.26
40850;BME280;26571;41.610;25.380;2023-11-19T03:25:38;97851.94;;;8.83;52.83
40850;BME280;26571;41.610;25.380;2023-11-19T03:28:04;97850.94;;;8.84;52.31
40850;BME280;26571;41.610;25.380;2023-11-19T03:30:30;97866.00;;;8.90;53.38
40850;BME280;26571;41.610;25.380;2023-11-19T03:32:56;97854.56;;;8.91;51.47
40850;BME280;26571;41.610;25.380;2023-11-19T03:35:23;97853.56;;;8.92;51.48
40850;BME280;26571;41.610;25.380;2023-11-19T03:37:48;97834.25;;;8.76;53.83
40850;BME280;26571;41.610;25.380;2023-11-19T03:40:14;97847.66;;;8.90;53.28
40850;BME280;26571;41.610;25.380;2023-11-19T03:42:40;97822.97;;;8.60;50.54
40850;BME280;26571;41.610;25.380;2023-11-19T03:45:08;97852.63;;;8.76;53.17
40850;BME280;26571;41.610;25.380;2023-11-19T03:47:34;97842.16;;;8.68;51.11
40850;BME280;26571;41.610;25.380;2023-11-19T03:50:00;97861.50;;;8.67;53.13
40850;BME280;26571;41.610;25.380;2023-11-19T03:52:26;97859.06;;;8.66;54.82
40850;BME280;26571;41.610;25.380;2023-11-19T03:54:55;97871.69;;;8.70;52.93
40850;BME280;26571;41.610;25.380;2023-11-19T03:57:21;97859.56;;;8.61;52.67
40850;BME280;26571;41.610;25.380;2023-11-19T03:59:47;97868.38;;;8.68;52.72
40850;BME280;26571;41.610;25.380;2023-11-19T04:02:13;97867.91;;;8.65;52.44
40850;BME280;26571;41.610;25.380;2023-11-19T04:04:38;97872.94;;;8.74;54.03
40850;BME280;26571;41.610;25.380;2023-11-19T04:07:04;97838.22;;;8.64;51.52
40850;BME280;26571;41.610;25.380;2023-11-19T04:09:31;97868.94;;;8.95;52.18
40850;BME280;26571;41.610;25.380;2023-11-19T04:12:00;97881.13;;;8.96;53.47
40850;BME280;26571;41.610;25.380;2023-11-19T04:14:26;97881.72;;;9.06;52.57
40850;BME280;26571;41.610;25.380;2023-11-19T04:16:51;97866.88;;;8.90;53.50
40850;BME280;26571;41.610;25.380;2023-11-19T04:19:18;97886.69;;;8.93;52.36
40850;BME280;26571;41.610;25.380;2023-11-19T04:21:44;97891.25;;;9.07;51.76
40850;BME280;26571;41.610;25.380;2023-11-19T04:24:10;97890.84;;;9.18;53.55
40850;BME280;26571;41.610;25.380;2023-11-19T04:26:43;97899.03;;;9.23;52.49
40850;BME280;26571;41.610;25.380;2023-11-19T04:29:12;97902.34;;;9.17;52.39
40850;BME280;26571;41.610;25.380;2023-11-19T04:31:38;97895.94;;;9.20;51.41
40850;BME280;26571;41.610;25.380;2023-11-19T04:34:04;97860.75;;;8.98;51.32
40850;BME280;26571;41.610;25.380;2023-11-19T04:36:31;97891.25;;;9.07;52.54
40850;BME280;26571;41.610;25.380;2023-11-19T04:38:58;97917.09;;;9.26;53.19
40850;BME280;26571;41.610;25.380;2023-11-19T04:41:25;97913.19;;;9.14;52.25
40850;BME280;26571;41.610;25.380;2023-11-19T04:43:51;97905.56;;;8.96;51.28
40850;BME280;26571;41.610;25.380;2023-11-19T04:46:16;97916.31;;;9.10;51.45
40850;BME280;26571;41.610;25.380;2023-11-19T04:48:42;97917.31;;;9.09;53.50
40850;BME280;26571;41.610;25.380;2023-11-19T04:51:07;97866.06;;;8.73;53.57
40850;BME280;26571;41.610;25.380;2023-11-19T04:53:34;97916.13;;;9.19;51.89
40850;BME280;26571;41.610;25.380;2023-11-19T04:56:00;97919.56;;;9.20;50.02
40850;BME280;26571;41.610;25.380;2023-11-19T04:58:25;97915.38;;;9.02;50.74
40850;BME280;26571;41.610;25.380;2023-11-19T05:00:51;97916.84;;;9.05;52.17
40850;BME280;26571;41.610;25.380;2023-11-19T05:03:16;97932.56;;;9.13;51.11
40850;BME280;26571;41.610;25.380;2023-11-19T05:05:43;97928.50;;;9.02;50.74
40850;BME280;26571;41.610;25.380;2023-11-19T05:08:08;97927.56;;;8.95;50.46
40850;BME280;26571;41.610;25.380;2023-11-19T05:10:34;97935.44;;;8.95;51.50
40850;BME280;26571;41.610;25.380;2023-11-19T05:12:59;97905.31;;;8.59;50.90
40850;BME280;26571;41.610;25.380;2023-11-19T05:15:24;97946.94;;;8.86;52.01
40850;BME280;26571;41.610;25.380;2023-11-19T05:17:50;97950.38;;;8.87;51.97
40850;BME280;26571;41.610;25.380;2023-11-19T05:20:15;97958.88;;;8.89;51.33
40850;BME280;26571;41.610;25.380;2023-11-19T05:22:42;97982.50;;;8.97;49.48
40850;BME280;26571;41.610;25.380;2023-11-19T05:25:08;97977.88;;;9.07;51.17
40850;BME280;26571;41.610;25.380;2023-11-19T05:27:36;97979.16;;;9.19;51.17
40850;BME280;26571;41.610;25.380;2023-11-19T05:30:04;97966.38;;;9.16;49.68
40850;BME280;26571;41.610;25.380;2023-11-19T05:32:32;97961.94;;;9.25;51.41
40850;BME280;26571;41.610;25.380;2023-11-19T05:34:58;97965.81;;;9.29;49.21
40850;BME280;26571;41.610;25.380;2023-11-19T05:37:23;97979.47;;;9.24;49.90
40850;BME280;26571;41.610;25.380;2023-11-19T05:39:48;97986.88;;;9.21;51.03
40850;BME280;26571;41.610;25.380;2023-11-19T05:42:14;97982.75;;;9.26;49.66
40850;BME280;26571;41.610;25.380;2023-11-19T05:44:39;97989.97;;;9.24;50.54
40850;BME280;26571;41.610;25.380;2023-11-19T05:47:05;97979.31;;;9.26;49.49
40850;BME280;26571;41.610;25.380;2023-11-19T05:49:30;97977.19;;;9.21;50.42
40850;BME280;26571;41.610;25.380;2023-11-19T05:51:56;97982.41;;;9.29;49.21
40850;BME280;26571;41.610;25.380;2023-11-19T05:54:21;97969.84;;;9.09;49.25
40850;BME280;26571;41.610;25.380;2023-11-19T05:56:48;97999.16;;;9.28;50.02
40850;BME280;26571;41.610;25.380;2023-11-19T05:59:14;98005.22;;;9.37;48.45
40850;BME280;26571;41.610;25.380;2023-11-19T06:01:43;97960.81;;;9.03;50.87
40850;BME280;26571;41.610;25.380;2023-11-19T06:04:09;97998.03;;;9.23;50.13
40850;BME280;26571;41.610;25.380;2023-11-19T06:06:34;98016.16;;;9.49;47.75
40850;BME280;26571;41.610;25.380;2023-11-19T06:08:59;98020.78;;;9.47;47.92
40850;BME280;26571;41.610;25.380;2023-11-19T06:11:27;98033.28;;;9.45;49.05
40850;BME280;26571;41.610;25.380;2023-11-19T06:13:52;97996.41;;;9.22;48.32
40850;BME280;26571;41.610;25.380;2023-11-19T06:16:18;98001.81;;;9.20;49.05
40850;BME280;26571;41.610;25.380;2023-11-19T06:18:44;98057.19;;;9.58;50.03
40850;BME280;26571;41.610;25.380;2023-11-19T06:21:10;98035.84;;;9.61;47.41
40850;BME280;26571;41.610;25.380;2023-11-19T06:23:35;98033.22;;;9.53;47.79
40850;BME280;26571;41.610;25.380;2023-11-19T06:26:01;98029.16;;;9.42;48.70
40850;BME280;26571;41.610;25.380;2023-11-19T06:28:26;98029.31;;;9.49;47.58
40850;BME280;26571;41.610;25.380;2023-11-19T06:30:52;98033.41;;;9.51;49.45
40850;BME280;26571;41.610;25.380;2023-11-19T06:33:18;98034.84;;;9.70;47.85
40850;BME280;26571;41.610;25.380;2023-11-19T06:35:43;98041.66;;;9.79;47.48
40850;BME280;26571;41.610;25.380;2023-11-19T06:38:09;98040.31;;;9.92;48.20
40850;BME280;26571;41.610;25.380;2023-11-19T06:40:35;98039.97;;;9.95;46.24
40850;BME280;26571;41.610;25.380;2023-11-19T06:43:01;98058.72;;;9.92;47.02
40850;BME280;26571;41.610;25.380;2023-11-19T06:45:29;98077.81;;;9.86;47.67
40850;BME280;26571;41.610;25.380;2023-11-19T06:47:54;98073.22;;;9.79;48.90
40850;BME280;26571;41.610;25.380;2023-11-19T06:50:20;98044.66;;;9.76;48.92
40850;BME280;26571;41.610;25.380;2023-11-19T06:52:46;98079.97;;;10.13;46.46
40850;BME280;26571;41.610;25.380;2023-11-19T06:55:12;98082.88;;;10.34;47.02
40850;BME280;26571;41.610;25.380;2023-11-19T06:57:37;98092.28;;;10.52;46.69
40850;BME280;26571;41.610;25.380;2023-11-19T07:00:04;98083.25;;;10.54;45.97
40850;BME280;26571;41.610;25.380;2023-11-19T07:02:31;98072.31;;;10.66;47.52
40850;BME280;26571;41.610;25.380;2023-11-19T07:04:57;98074.09;;;10.88;44.59
40850;BME280;26571;41.610;25.380;2023-11-19T07:07:22;98051.75;;;10.84;45.16
40850;BME280;26571;41.610;25.380;2023-11-19T07:09:48;98079.16;;;11.12;45.49
40850;BME280;26571;41.610;25.380;2023-11-19T07:12:14;98085.19;;;11.21;44.23
40850;BME280;26571;41.610;25.380;2023-11-19T07:14:40;98094.13;;;11.50;43.75
40850;BME280;26571;41.610;25.380;2023-11-19T07:17:07;98095.13;;;13.02;42.90
40850;BME280;26571;41.610;25.380;2023-11-19T07:19:34;98075.56;;;14.89;39.45
40850;BME280;26571;41.610;25.380;2023-11-19T07:22:01;98078.66;;;16.55;37.52
40850;BME280;26571;41.610;25.380;2023-11-19T07:24:27;98052.47;;;17.66;33.62
40850;BME280;26571;41.610;25.380;2023-11-19T07:26:53;98070.31;;;18.50;31.98
40850;BME280;26571;41.610;25.380;2023-11-19T07:29:20;98059.28;;;19.30;30.81
40850;BME280;26571;41.610;25.380;2023-11-19T07:31:48;98068.19;;;20.06;29.33
40850;BME280;26571;41.610;25.380;2023-11-19T07:34:14;98071.06;;;18.99;29.76
40850;BME280;26571;41.610;25.380;2023-11-19T07:36:39;98064.84;;;17.97;31.10
40850;BME280;26571;41.610;25.380;2023-11-19T07:39:05;98062.69;;;16.62;32.08
40850;BME280;26571;41.610;25.380;2023-11-19T07:41:31;98078.09;;;15.95;34.43
40850;BME280;26571;41.610;25.380;2023-11-19T07:43:56;98093.06;;;16.41;33.56
40850;BME280;26571;41.610;25.380;2023-11-19T07:46:22;98090.09;;;16.94;32.51
40850;BME280;26571;41.610;25.380;2023-11-19T07:48:48;98094.59;;;17.69;31.89
40850;BME280;26571;41.610;25.380;2023-11-19T07:51:14;98101.09;;;18.16;31.56
40850;BME280;26571;41.610;25.380;2023-11-19T07:53:40;98079.25;;;18.26;32.27
40850;BME280;26571;41.610;25.380;2023-11-19T07:56:06;98103.03;;;18.57;30.87
40850;BME280;26571;41.610;25.380;2023-11-19T07:58:32;98101.84;;;18.72;29.90
40850;BME280;26571;41.610;25.380;2023-11-19T08:00:58;98099.44;;;18.33;31.55
40850;BME280;26571;41.610;25.380;2023-11-19T08:03:23;98097.25;;;18.60;30.88
40850;BME280;26571;41.610;25.380;2023-11-19T08:05:49;98105.25;;;18.60;29.90
40850;BME280;26571;41.610;25.380;2023-11-19T08:08:15;98105.03;;;18.44;31.95
40850;BME280;26571;41.610;25.380;2023-11-19T08:10:41;98121.41;;;18.29;30.88
40850;BME280;26571;41.610;25.380;2023-11-19T08:13:06;98132.16;;;18.04;31.33
40850;BME280;26571;41.610;25.380;2023-11-19T08:15:32;98143.41;;;18.06;31.34
40850;BME280;26571;41.610;25.380;2023-11-19T08:17:58;98141.78;;;17.62;30.91
40850;BME280;26571;41.610;25.380;2023-11-19T08:20:23;98153.34;;;17.49;31.66
40850;BME280;26571;41.610;25.380;2023-11-19T08:22:49;98157.34;;;17.33;32.18
40850;BME280;26571;41.610;25.380;2023-11-19T08:25:14;98163.59;;;17.45;32.74
40850;BME280;26571;41.610;25.380;2023-11-19T08:27:40;98152.06;;;18.01;31.63
40850;BME280;26571;41.610;25.380;2023-11-19T08:30:06;98158.00;;;18.40;31.85
40850;BME280;26571;41.610;25.380;2023-11-19T08:32:32;98172.00;;;18.17;31.78
40850;BME280;26571;41.610;25.380;2023-11-19T08:34:57;98154.72;;;18.56;30.81
40850;BME280;26571;41.610;25.380;2023-11-19T08:37:23;98158.50;;;18.49;30.84
40850;BME280;26571;41.610;25.380;2023-11-19T08:39:49;98157.97;;;18.58;31.03
40850;BME280;26571;41.610;25.380;2023-11-19T08:42:15;98150.91;;;18.64;31.08
40850;BME280;26571;41.610;25.380;2023-11-19T08:44:41;98155.44;;;18.64;29.50
40850;BME280;26571;41.610;25.380;2023-11-19T08:47:12;98151.63;;;18.23;30.49
40850;BME280;26571;41.610;25.380;2023-11-19T08:49:41;98151.84;;;18.03;29.90
40850;BME280;26571;41.610;25.380;2023-11-19T08:52:06;98141.94;;;17.92;31.88
40850;BME280;26571;41.610;25.380;2023-11-19T08:54:36;98144.63;;;17.85;31.19
40850;BME280;26571;41.610;25.380;2023-11-19T08:57:02;98148.28;;;17.66;32.62
40850;BME280;26571;41.610;25.380;2023-11-19T08:59:28;98150.72;;;17.67;32.36
40850;BME280;26571;41.610;25.380;2023-11-19T09:01:54;98155.91;;;17.62;32.46
40850;BME280;26571;41.610;25.380;2023-11-19T09:04:20;98150.91;;;17.47;32.24
40850;BME280;26571;41.610;25.380;2023-11-19T09:06:48;98154.47;;;17.60;33.23
40850;BME280;26571;41.610;25.380;2023-11-19T09:09:13;98156.22;;;17.47;32.89
40850;BME280;26571;41.610;25.380;2023-11-19T09:11:39;98151.63;;;17.36;32.91
40850;BME280;26571;41.610;25.380;2023-11-19T09:14:04;98157.13;;;17.35;32.58
40850;BME280;26571;41.610;25.380;2023-11-19T09:16:30;98168.50;;;17.48;32.67
40850;BME280;26571;41.610;25.380;2023-11-19T09:18:55;98168.72;;;17.72;31.04
40850;BME280;26571;41.610;25.380;2023-11-19T09:21:21;98171.41;;;17.65;32.07
40850;BME280;26571;41.610;25.380;2023-11-19T09:23:47;98171.56;;;17.45;32.22
40850;BME280;26571;41.610;25.380;2023-11-19T09:26:14;98160.34;;;17.43;31.88
40850;BME280;26571;41.610;25.380;2023-11-19T09:28:39;98135.91;;;17.28;32.41
40850;BME280;26571;41.610;25.380;2023-11-19T09:31:15;98147.41;;;17.22;33.12
40850;BME280;26571;41.610;25.380;2023-11-19T09:33:40;98123.66;;;17.20;33.87
40850;BME280;26571;41.610;25.380;2023-11-19T09:36:06;98141.53;;;17.13;33.86
40850;BME280;26571;41.610;25.380;2023-11-19T09:38:32;98134.53;;;17.19;34.16
40850;BME280;26571;41.610;25.380;2023-11-19T09:40:58;98120.38;;;17.25;32.75
40850;BME280;26571;41.610;25.380;2023-11-19T09:43:26;98111.03;;;17.16;30.88
40850;BME280;26571;41.610;25.380;2023-11-19T09:45:54;98120.03;;;17.15;33.05
40850;BME280;26571;41.610;25.380;2023-11-19T09:48:21;98120.47;;;17.12;32.42
40850;BME280;26571;41.610;25.380;2023-11-19T09:50:48;98136.59;;;17.17;33.45
40850;BME280;26571;41.610;25.380;2023-11-19T09:53:15;98148.22;;;17.22;32.10
40850;BME280;26571;41.610;25.380;2023-11-19T09:55:41;98141.66;;;16.93;33.42
40850;BME280;26571;41.610;25.380;2023-11-19T09:58:07;98142.69;;;16.92;33.97
40850;BME280;26571;41.610;25.380;2023-11-19T10:00:33;98139.34;;;17.03;33.89
40850;BME280;26571;41.610;25.380;2023-11-19T10:02:59;98148.66;;;17.19;33.75
40850;BME280;26571;41.610;25.380;2023-11-19T10:05:25;98145.53;;;16.97;33.67
40850;BME280;26571;41.610;25.380;2023-11-19T10:07:52;98147.22;;;16.92;34.32
40850;BME280;26571;41.610;25.380;2023-11-19T10:10:17;98125.19;;;16.78;32.27
40850;BME280;26571;41.610;25.380;2023-11-19T10:12:47;98143.03;;;17.02;33.98
40850;BME280;26571;41.610;25.380;2023-11-19T10:15:21;98146.13;;;16.99;33.97
40850;BME280;26571;41.610;25.380;2023-11-19T10:17:47;98119.81;;;16.91;33.10
40850;BME280;26571;41.610;25.380;2023-11-19T10:20:13;98132.09;;;16.86;32.64
40850;BME280;26571;41.610;25.380;2023-11-19T10:22:38;98131.19;;;16.98;33.59
40850;BME280;26571;41.610;25.380;2023-11-19T10:25:08;98119.59;;;16.93;31.05
40850;BME280;26571;41.610;25.380;2023-11-19T10:27:47;98112.66;;;16.85;32.66
40850;BME280;26571;41.610;25.380;2023-11-19T10:30:12;98133.69;;;16.93;32.01
40850;BME280;26571;41.610;25.380;2023-11-19T10:32:38;98128.78;;;16.90;32.93
40850;BME280;26571;41.610;25.380;2023-11-19T10:35:07;98137.16;;;16.94;32.65
40850;BME280;26571;41.610;25.380;2023-11-19T10:37:32;98136.84;;;17.09;32.01
40850;BME280;26571;41.610;25.380;2023-11-19T10:40:00;98137.22;;;16.87;31.82
40850;BME280;26571;41.610;25.380;2023-11-19T10:42:26;98130.63;;;16.51;34.57
40850;BME280;26571;41.610;25.380;2023-11-19T10:44:51;98141.56;;;16.68;33.65
40850;BME280;26571;41.610;25.380;2023-11-19T10:47:19;98134.78;;;16.79;32.95
40850;BME280;26571;41.610;25.380;2023-11-19T10:49:45;98125.75;;;16.87;33.23
40850;BME280;26571;41.610;25.380;2023-11-19T10:52:22;98121.53;;;16.72;35.28
40850;BME280;26571;41.610;25.380;2023-11-19T10:54:50;98126.47;;;16.62;34.16
40850;BME280;26571;41.610;25.380;2023-11-19T10:57:21;98130.34;;;16.66;33.94
40850;BME280;26571;41.610;25.380;2023-11-19T10:59:47;98133.88;;;16.53;33.85
40850;BME280;26571;41.610;25.380;2023-11-19T11:02:19;98140.41;;;16.58;34.16
40850;BME280;26571;41.610;25.380;2023-11-19T11:04:47;98107.69;;;16.57;33.58
40850;BME280;26571;41.610;25.380;2023-11-19T11:07:14;98122.84;;;16.57;34.91
40850;BME280;26571;41.610;25.380;2023-11-19T11:09:41;98114.69;;;16.45;35.38
40850;BME280;26571;41.610;25.380;2023-11-19T11:12:09;98122.84;;;16.57;34.29
40850;BME280;26571;41.610;25.380;2023-11-19T11:14:37;98091.44;;;16.34;35.95
40850;BME280;26571;41.610;25.380;2023-11-19T11:17:09;98110.59;;;16.49;36.20
40850;BME280;26571;41.610;25.380;2023-11-19T11:19:36;98113.38;;;16.67;35.14
40850;BME280;26571;41.610;25.380;2023-11-19T11:22:15;98087.47;;;16.56;33.83
40850;BME280;26571;41.610;25.380;2023-11-19T11:38:23;98111.44;;;16.43;34.26
40850;BME280;26571;41.610;25.380;2023-11-19T11:41:20;98112.78;;;16.14;33.87
40850;BME280;26571;41.610;25.380;2023-11-19T11:43:52;98112.19;;;16.12;34.09
40850;BME280;26571;41.610;25.380;2023-11-19T11:49:08;98093.00;;;16.03;34.07
40850;BME280;26571;41.610;25.380;2023-11-19T11:54:09;98099.72;;;16.06;34.96
40850;BME280;26571;41.610;25.380;2023-11-19T11:56:38;98090.34;;;16.03;35.58
40850;BME280;26571;41.610;25.380;2023-11-19T11:59:23;98081.56;;;15.96;32.13
40850;BME280;26571;41.610;25.380;2023-11-19T12:02:03;98077.97;;;15.70;35.73
40850;BME280;26571;41.610;25.380;2023-11-19T12:04:29;98082.69;;;15.68;35.44
40850;BME280;26571;41.610;25.380;2023-11-19T12:07:08;98078.53;;;15.92;34.93
40850;BME280;26571;41.610;25.380;2023-11-19T12:09:42;98058.19;;;15.53;36.09
40850;BME280;26571;41.610;25.380;2023-11-19T12:12:21;98060.22;;;15.51;36.38
40850;BME280;26571;41.610;25.380;2023-11-19T12:17:46;98062.66;;;15.66;36.65
40850;BME280;26571;41.610;25.380;2023-11-19T12:20:15;98068.38;;;15.83;36.04
40850;BME280;26571;41.610;25.380;2023-11-19T12:22:42;98064.47;;;15.85;35.56
40850;BME280;26571;41.610;25.380;2023-11-19T12:25:09;98052.03;;;15.79;36.33
40850;BME280;26571;41.610;25.380;2023-11-19T12:27:35;98053.88;;;15.79;36.80
40850;BME280;26571;41.610;25.380;2023-11-19T12:30:02;98049.22;;;15.67;34.59
40850;BME280;26571;41.610;25.380;2023-11-19T12:32:44;98045.50;;;15.75;35.62
40850;BME280;26571;41.610;25.380;2023-11-19T12:35:11;98053.28;;;15.70;34.97
40850;BME280;26571;41.610;25.380;2023-11-19T12:37:43;98054.09;;;15.77;35.91
40850;BME280;26571;41.610;25.380;2023-11-19T12:40:13;98050.16;;;15.86;33.91
40850;BME280;26571;41.610;25.380;2023-11-19T12:42:39;98029.44;;;15.63;35.92
40850;BME280;26571;41.610;25.380;2023-11-19T12:45:05;98050.03;;;15.68;36.30
40850;BME280;26571;41.610;25.380;2023-11-19T12:47:31;98044.50;;;15.63;33.35
40850;BME280;26571;41.610;25.380;2023-11-19T12:49:57;98053.69;;;15.54;36.52
40850;BME280;26571;41.610;25.380;2023-11-19T12:52:22;98050.88;;;15.42;35.27
40850;BME280;26571;41.610;25.380;2023-11-19T12:54:49;98032.09;;;15.30;34.17
40850;BME280;26571;41.610;25.380;2023-11-19T12:57:15;98030.69;;;15.21;36.35
40850;BME280;26571;41.610;25.380;2023-11-19T12:59:41;98055.75;;;15.45;35.28
40850;BME280;26571;41.610;25.380;2023-11-19T13:02:06;98056.19;;;15.42;34.53
40850;BME280;26571;41.610;25.380;2023-11-19T13:04:32;98060.25;;;15.05;34.86
40850;BME280;26571;41.610;25.380;2023-11-19T13:06:58;98052.53;;;14.83;35.30
40850;BME280;26571;41.610;25.380;2023-11-19T13:09:28;98053.16;;;14.92;34.14
40850;BME280;26571;41.610;25.380;2023-11-19T13:11:55;98052.31;;;14.78;35.20
40850;BME280;26571;41.610;25.380;2023-11-19T13:14:22;98050.44;;;14.59;36.83